createdAt,value
2019-06-08T00:01:18.435Z,14.50
2019-06-08T00:03:47.055Z,14.50
2019-06-08T00:06:16.689Z,14.50
2019-06-08T00:08:45.254Z,14.50
2019-06-08T00:11:14.978Z,14.50
2019-06-08T00:13:43.685Z,14.60
2019-06-08T00:16:13.210Z,14.50
2019-06-08T00:18:41.851Z,14.50
2019-06-08T00:21:10.322Z,14.60
2019-06-08T00:23:38.760Z,14.60
2019-06-08T00:26:07.827Z,14.70
2019-06-08T00:28:36.296Z,14.60
2019-06-08T00:31:04.764Z,14.60
2019-06-08T00:33:33.189Z,14.60
2019-06-08T00:36:01.656Z,14.60
2019-06-08T00:38:30.088Z,14.60
2019-06-08T00:40:58.813Z,14.60
2019-06-08T00:43:27.385Z,14.60
2019-06-08T00:45:55.843Z,14.60
2019-06-08T00:48:24.651Z,14.60
2019-06-08T00:50:53.242Z,14.60
2019-06-08T00:53:21.691Z,14.50
2019-06-08T00:55:50.139Z,14.50
2019-06-08T00:58:20.361Z,14.50
2019-06-08T01:00:49.114Z,14.70
2019-06-08T01:03:17.682Z,14.70
2019-06-08T01:05:47.000Z,14.60
2019-06-08T01:08:15.538Z,14.60
2019-06-08T01:10:44.303Z,14.60
2019-06-08T01:13:12.741Z,14.60
2019-06-08T01:15:41.200Z,14.50
2019-06-08T01:18:09.723Z,14.50
2019-06-08T01:20:38.240Z,14.50
2019-06-08T01:23:06.739Z,14.50
2019-06-08T01:25:35.202Z,14.50
2019-06-08T01:28:03.667Z,14.50
2019-06-08T01:33:03.038Z,14.50
2019-06-08T01:35:31.779Z,14.50
2019-06-08T01:38:00.464Z,14.50
2019-06-08T01:43:25.904Z,14.40
2019-06-08T01:45:54.309Z,14.40
2019-06-08T01:48:24.040Z,14.40
2019-06-08T01:50:53.288Z,14.40
2019-06-08T01:53:22.742Z,14.40
2019-06-08T01:55:51.376Z,14.30
2019-06-08T01:58:19.843Z,14.30
2019-06-08T02:00:48.310Z,14.30
2019-06-08T02:03:16.758Z,14.40
2019-06-08T02:05:45.234Z,14.30
2019-06-08T02:08:13.678Z,14.30
2019-06-08T02:10:42.179Z,14.30
2019-06-08T02:13:10.650Z,14.30
2019-06-08T02:15:39.162Z,14.20
2019-06-08T02:18:07.626Z,14.10
2019-06-08T02:20:36.092Z,14.10
2019-06-08T02:23:04.631Z,14.10
2019-06-08T02:25:33.545Z,14.00
2019-06-08T02:28:02.236Z,14.00
2019-06-08T02:33:28.347Z,14.00
2019-06-08T02:35:56.920Z,14.00
2019-06-08T02:38:25.395Z,13.90
2019-06-08T02:40:53.892Z,13.90
2019-06-08T02:43:22.353Z,13.80
2019-06-08T02:45:50.877Z,13.80
2019-06-08T02:48:19.325Z,13.70
2019-06-08T02:50:53.351Z,13.70
2019-06-08T02:53:22.835Z,13.70
2019-06-08T02:55:51.401Z,13.70
2019-06-08T02:58:20.561Z,13.70
2019-06-08T03:00:50.661Z,13.70
2019-06-08T03:03:19.190Z,13.60
2019-06-08T03:05:50.041Z,13.60
2019-06-08T03:08:19.719Z,13.70
2019-06-08T03:10:53.135Z,13.60
2019-06-08T03:13:22.853Z,13.60
2019-06-08T03:15:51.531Z,13.50
2019-06-08T03:18:19.974Z,13.60
2019-06-08T03:20:48.440Z,13.60
2019-06-08T03:23:16.972Z,13.60
2019-06-08T03:25:52.517Z,13.60
2019-06-08T03:28:15.674Z,13.50
2019-06-08T03:30:52.549Z,13.50
2019-06-08T03:33:14.397Z,13.50
2019-06-08T03:35:52.056Z,13.60
2019-06-08T03:38:13.624Z,13.70
2019-06-08T03:40:43.396Z,13.90
2019-06-08T03:43:12.310Z,14.00
2019-06-08T03:45:41.267Z,14.10
2019-06-08T03:48:10.944Z,14.20
2019-06-08T03:50:40.204Z,14.30
2019-06-08T03:53:09.575Z,14.40
2019-06-08T03:55:39.832Z,14.40
2019-06-08T03:58:10.433Z,14.30
2019-06-08T04:00:38.441Z,14.30
2019-06-08T04:03:06.879Z,14.30
2019-06-08T04:05:35.337Z,14.20
2019-06-08T04:08:03.889Z,14.20
2019-06-08T04:10:32.326Z,14.20
2019-06-08T04:13:00.811Z,14.20
2019-06-08T04:15:29.316Z,14.20
2019-06-08T04:17:57.782Z,14.30
2019-06-08T04:20:26.302Z,14.30
2019-06-08T04:22:54.751Z,14.40
2019-06-08T04:25:23.223Z,14.60
2019-06-08T04:27:51.659Z,14.60
2019-06-08T04:30:20.187Z,14.50
2019-06-08T04:32:49.719Z,14.60
2019-06-08T04:35:18.427Z,14.50
2019-06-08T04:37:47.158Z,14.60
2019-06-08T04:40:16.047Z,14.60
2019-06-08T04:42:46.694Z,14.60
2019-06-08T04:45:15.801Z,14.70
2019-06-08T04:47:46.099Z,14.80
2019-06-08T04:50:22.363Z,14.90
2019-06-08T04:52:47.147Z,14.90
2019-06-08T04:55:15.454Z,15.00
2019-06-08T04:57:47.402Z,15.10
2019-06-08T05:00:14.207Z,15.00
2019-06-08T05:02:44.645Z,15.00
2019-06-08T05:05:13.501Z,15.20
2019-06-08T05:07:43.676Z,15.10
2019-06-08T05:10:12.789Z,15.40
2019-06-08T05:12:41.410Z,15.40
2019-06-08T05:15:10.830Z,15.40
2019-06-08T05:17:39.438Z,15.50
2019-06-08T05:20:08.566Z,15.40
2019-06-08T05:22:39.287Z,15.50
2019-06-08T05:25:08.242Z,15.60
2019-06-08T05:27:36.683Z,15.90
2019-06-08T05:30:09.129Z,16.00
2019-06-08T05:32:37.696Z,16.10
2019-06-08T05:35:07.763Z,16.00
2019-06-08T05:37:36.311Z,15.80
2019-06-08T05:40:06.684Z,16.10
2019-06-08T05:42:35.151Z,16.10
2019-06-08T05:45:05.730Z,16.10
2019-06-08T05:47:34.206Z,16.00
2019-06-08T05:50:02.774Z,16.10
2019-06-08T05:52:31.265Z,15.80
2019-06-08T05:54:59.766Z,15.70
2019-06-08T05:57:28.223Z,15.70
2019-06-08T05:59:56.658Z,15.70
2019-06-08T06:02:25.535Z,15.70
2019-06-08T06:04:54.119Z,15.60
2019-06-08T06:07:22.633Z,15.70
2019-06-08T06:09:51.277Z,15.50
2019-06-08T06:12:19.822Z,15.50
2019-06-08T06:14:49.074Z,15.40
2019-06-08T06:17:17.601Z,15.40
2019-06-08T06:19:47.232Z,15.40
2019-06-08T06:22:15.894Z,15.40
2019-06-08T06:24:45.464Z,15.30
2019-06-08T06:27:14.116Z,15.30
2019-06-08T06:29:43.513Z,15.40
2019-06-08T06:32:12.098Z,15.30
2019-06-08T06:34:41.911Z,15.40
2019-06-08T06:37:10.647Z,15.50
2019-06-08T06:39:39.125Z,15.40
2019-06-08T06:42:07.654Z,15.30
2019-06-08T06:44:36.171Z,15.30
2019-06-08T06:47:04.785Z,15.20
2019-06-08T06:49:33.249Z,15.20
2019-06-08T06:52:01.691Z,15.30
2019-06-08T06:54:30.142Z,15.50
2019-06-08T06:56:59.545Z,15.70
2019-06-08T06:59:28.047Z,15.90
2019-06-08T07:01:57.591Z,15.60
2019-06-08T07:04:27.803Z,15.70
2019-06-08T07:06:56.304Z,15.60
2019-06-08T07:09:24.810Z,15.70
2019-06-08T07:11:56.644Z,15.70
2019-06-08T07:14:24.812Z,15.60
2019-06-08T07:16:54.083Z,15.80
2019-06-08T07:19:22.703Z,15.80
2019-06-08T07:21:53.040Z,15.80
2019-06-08T07:24:21.339Z,15.80
2019-06-08T07:26:50.435Z,15.80
2019-06-08T07:29:19.023Z,15.70
2019-06-08T07:31:48.624Z,15.90
2019-06-08T07:34:17.680Z,16.30
2019-06-08T07:36:48.455Z,16.10
2019-06-08T07:39:17.349Z,16.10
2019-06-08T07:41:45.787Z,16.10
2019-06-08T07:44:14.227Z,16.20
2019-06-08T07:46:42.703Z,16.30
2019-06-08T07:49:11.147Z,16.30
2019-06-08T07:51:39.595Z,16.30
2019-06-08T07:54:08.063Z,16.10
2019-06-08T07:56:36.523Z,16.30
2019-06-08T07:59:05.025Z,16.30
2019-06-08T08:01:36.515Z,16.10
2019-06-08T08:04:03.868Z,15.90
2019-06-08T08:06:32.348Z,15.90
2019-06-08T08:09:00.798Z,16.00
2019-06-08T08:11:29.282Z,15.80
2019-06-08T08:13:59.124Z,15.70
2019-06-08T08:16:27.800Z,15.60
2019-06-08T08:18:57.511Z,15.60
2019-06-08T08:21:29.300Z,15.60
2019-06-08T08:23:59.639Z,15.70
2019-06-08T08:26:27.383Z,15.50
2019-06-08T08:28:59.830Z,15.50
2019-06-08T08:31:27.844Z,15.40
2019-06-08T08:34:03.069Z,15.50
2019-06-08T08:36:29.409Z,15.50
2019-06-08T08:39:00.453Z,15.60
2019-06-08T08:41:27.927Z,15.70
2019-06-08T08:44:00.841Z,15.60
2019-06-08T08:46:28.557Z,15.70
2019-06-08T08:49:05.920Z,15.70
2019-06-08T08:51:27.935Z,15.80
2019-06-08T08:54:02.032Z,16.00
2019-06-08T08:56:28.037Z,15.90
2019-06-08T08:58:59.663Z,16.10
2019-06-08T09:01:28.775Z,16.20
2019-06-08T09:04:01.702Z,16.10
2019-06-08T09:06:28.134Z,16.00
2019-06-08T09:09:00.864Z,16.00
2019-06-08T09:11:28.942Z,16.20
2019-06-08T09:14:01.390Z,16.10
2019-06-08T09:16:28.747Z,16.10
2019-06-08T09:19:01.148Z,16.10
2019-06-08T09:21:28.123Z,16.10
2019-06-08T09:24:00.768Z,16.00
2019-06-08T09:26:28.857Z,16.00
2019-06-08T09:28:58.285Z,16.00
2019-06-08T09:31:28.178Z,16.10
2019-06-08T09:34:05.508Z,16.00
2019-06-08T09:36:28.718Z,15.90
2019-06-08T09:38:59.635Z,15.90
2019-06-08T09:41:30.821Z,16.00
2019-06-08T09:44:00.499Z,16.00
2019-06-08T09:46:28.209Z,15.90
2019-06-08T09:48:59.498Z,15.90
2019-06-08T09:51:28.555Z,16.00
2019-06-08T09:54:00.613Z,16.00
2019-06-08T09:56:28.322Z,16.10
2019-06-08T09:59:01.308Z,16.10
2019-06-08T10:01:28.630Z,16.20
2019-06-08T10:04:00.839Z,16.00
2019-06-08T10:06:27.516Z,16.00
2019-06-08T10:08:56.397Z,16.10
2019-06-08T10:11:25.005Z,16.20
2019-06-08T10:13:54.469Z,16.30
2019-06-08T10:16:27.911Z,16.20
2019-06-08T10:18:57.688Z,16.00
2019-06-08T10:21:28.241Z,16.10
2019-06-08T10:24:00.590Z,16.00
2019-06-08T10:26:27.966Z,16.10
2019-06-08T10:29:00.098Z,16.10
2019-06-08T10:31:36.500Z,16.10
2019-06-08T10:34:03.858Z,16.10
2019-06-08T10:36:33.407Z,16.10
2019-06-08T10:39:03.835Z,16.20
2019-06-08T10:41:32.094Z,16.20
2019-06-08T10:44:01.318Z,16.20
2019-06-08T10:46:29.946Z,16.40
2019-06-08T10:48:59.637Z,16.50
2019-06-08T10:51:28.261Z,16.70
2019-06-08T10:53:57.855Z,16.70
2019-06-08T10:56:30.908Z,16.70
2019-06-08T10:58:58.010Z,16.70
2019-06-08T11:01:28.244Z,16.70
2019-06-08T11:03:58.453Z,16.80
2019-06-08T11:06:27.124Z,17.00
2019-06-08T11:08:58.283Z,16.90
2019-06-08T11:11:28.385Z,17.10
2019-06-08T11:13:58.441Z,17.10
2019-06-08T11:16:28.572Z,17.10
2019-06-08T11:18:58.531Z,17.00
2019-06-08T11:21:28.488Z,16.90
2019-06-08T11:24:07.651Z,16.90
2019-06-08T11:26:28.912Z,16.80
2019-06-08T11:28:58.619Z,16.90
2019-06-08T11:31:29.794Z,16.90
2019-06-08T11:33:58.874Z,17.00
2019-06-08T11:36:28.286Z,17.10
2019-06-08T11:38:58.797Z,17.20
2019-06-08T11:41:27.833Z,17.30
2019-06-08T11:43:59.551Z,17.60
2019-06-08T11:50:11.674Z,17.70
2019-06-08T11:52:38.996Z,18.10
2019-06-08T11:55:11.296Z,17.80
2019-06-08T11:57:40.477Z,17.60
2019-06-08T12:00:23.502Z,17.70
2019-06-08T12:02:41.409Z,17.80
2019-06-08T12:05:12.434Z,17.80
2019-06-08T12:07:40.292Z,17.60
2019-06-08T12:10:10.853Z,17.50
2019-06-08T12:12:39.107Z,17.50
2019-06-08T12:15:11.150Z,17.30
2019-06-08T12:17:38.076Z,17.30
2019-06-08T12:20:08.566Z,17.40
2019-06-08T12:22:37.735Z,17.40
2019-06-08T12:25:08.200Z,17.40
2019-06-08T12:27:40.093Z,17.30
2019-06-08T12:30:12.071Z,17.30
2019-06-08T12:32:37.541Z,17.20
2019-06-08T12:35:09.152Z,17.20
2019-06-08T12:37:38.725Z,17.20
2019-06-08T12:40:10.214Z,17.50
2019-06-08T12:42:38.166Z,17.60
2019-06-08T12:45:07.661Z,17.70
2019-06-08T12:47:38.080Z,17.80
2019-06-08T12:50:09.031Z,17.80
2019-06-08T12:52:39.289Z,17.80
2019-06-08T12:55:15.871Z,17.80
2019-06-08T12:57:38.447Z,17.90
2019-06-08T13:00:09.897Z,17.80
2019-06-08T13:02:38.646Z,17.80
2019-06-08T13:05:11.983Z,17.80
2019-06-08T13:07:38.782Z,17.80
2019-06-08T13:10:08.802Z,17.60
2019-06-08T13:12:40.489Z,17.60
2019-06-08T13:15:08.488Z,17.60
2019-06-08T13:17:38.320Z,17.60
2019-06-08T13:20:22.369Z,17.60
2019-06-08T13:22:49.270Z,17.70
2019-06-08T13:25:34.981Z,17.70
2019-06-08T13:27:48.155Z,17.80
2019-06-08T13:30:23.259Z,17.80
2019-06-08T13:32:48.305Z,17.90
2019-06-08T13:35:19.158Z,17.90
2019-06-08T13:37:47.433Z,17.80
2019-06-08T13:40:20.079Z,17.80
2019-06-08T13:42:51.137Z,17.80
2019-06-08T13:45:20.515Z,17.90
2019-06-08T13:51:19.840Z,18.30
2019-06-08T13:53:49.900Z,18.40
2019-06-08T13:56:19.411Z,18.80
2019-06-08T13:58:48.448Z,18.90
2019-06-08T14:01:17.627Z,18.50
2019-06-08T14:03:49.748Z,18.70
2019-06-08T14:06:19.045Z,19.00
2019-06-08T14:08:49.623Z,19.20
2019-06-08T14:11:19.661Z,19.10
2019-06-08T14:13:48.073Z,19.00
2019-06-08T14:16:20.157Z,19.00
2019-06-08T14:18:48.580Z,18.90
2019-06-08T14:21:21.562Z,19.00
2019-06-08T14:23:48.420Z,18.90
2019-06-08T14:26:19.727Z,18.80
2019-06-08T14:28:50.304Z,18.80
2019-06-08T14:31:20.509Z,18.90
2019-06-08T14:33:48.409Z,19.00
2019-06-08T14:36:19.722Z,19.20
2019-06-08T14:38:49.450Z,19.40
2019-06-08T14:41:18.226Z,19.30
2019-06-08T14:43:50.551Z,19.00
2019-06-08T14:46:19.334Z,19.20
2019-06-08T14:48:47.928Z,19.10
2019-06-08T14:51:16.361Z,19.00
2019-06-08T14:53:44.823Z,18.80
2019-06-08T14:56:13.279Z,18.80
2019-06-08T14:58:41.731Z,18.90
2019-06-08T15:01:10.208Z,19.40
2019-06-08T15:03:38.645Z,19.30
2019-06-08T15:06:07.996Z,19.20
2019-06-08T15:08:36.849Z,19.00
2019-06-08T15:11:07.913Z,19.10
2019-06-08T15:13:37.355Z,19.20
2019-06-08T15:16:08.103Z,19.50
2019-06-08T15:18:35.888Z,19.60
2019-06-08T15:21:04.510Z,19.60
2019-06-08T15:23:52.377Z,19.90
2019-06-08T15:26:29.857Z,19.90
2019-06-08T15:28:51.088Z,20.10
2019-06-08T15:31:19.562Z,20.10
2019-06-08T15:33:48.319Z,19.80
2019-06-08T15:36:20.225Z,19.60
2019-06-08T15:38:48.012Z,19.50
2019-06-08T15:41:20.747Z,19.30
2019-06-08T15:44:06.274Z,19.10
2019-06-08T15:46:34.759Z,19.10
2019-06-08T15:49:03.215Z,19.00
2019-06-08T15:51:37.250Z,19.10
2019-06-08T15:54:01.853Z,19.00
2019-06-08T15:56:41.766Z,19.10
2019-06-08T15:59:00.449Z,19.10
2019-06-08T16:01:29.440Z,19.30
2019-06-08T16:03:58.064Z,19.30
2019-06-08T16:06:27.707Z,19.50
2019-06-08T16:08:56.943Z,19.30
2019-06-08T16:11:26.072Z,19.40
2019-06-08T16:13:54.708Z,19.40
2019-06-08T16:16:23.144Z,19.20
2019-06-08T16:18:51.618Z,19.20
2019-06-08T16:21:20.054Z,19.10
2019-06-08T16:23:48.546Z,19.00
2019-06-08T16:26:17.270Z,19.10
2019-06-08T16:28:45.727Z,19.30
2019-06-08T16:31:14.218Z,19.40
2019-06-08T16:33:44.280Z,19.40
2019-06-08T16:36:12.943Z,19.50
2019-06-08T16:38:41.411Z,19.70
2019-06-08T16:41:09.868Z,19.70
2019-06-08T16:43:39.328Z,19.40
2019-06-08T16:46:07.930Z,19.40
2019-06-08T16:48:36.403Z,19.10
2019-06-08T16:51:04.856Z,18.80
2019-06-08T16:53:34.144Z,18.70
2019-06-08T16:56:02.862Z,18.50
2019-06-08T16:58:32.146Z,18.50
2019-06-08T17:01:00.860Z,18.50
2019-06-08T17:03:30.705Z,18.60
2019-06-08T17:05:59.303Z,18.60
2019-06-08T17:08:27.766Z,18.60
2019-06-08T17:10:56.234Z,18.50
2019-06-08T17:13:25.054Z,18.40
2019-06-08T17:15:53.488Z,18.40
2019-06-08T17:18:21.965Z,18.30
2019-06-08T17:20:50.475Z,18.20
2019-06-08T17:23:19.002Z,17.70
2019-06-08T17:25:47.783Z,17.30
2019-06-08T17:28:16.312Z,16.80
2019-06-08T17:30:44.767Z,16.70
2019-06-08T17:33:13.239Z,16.60
2019-06-08T17:35:42.362Z,16.40
2019-06-08T17:38:10.980Z,16.10
2019-06-08T17:40:40.111Z,15.90
2019-06-08T17:43:08.783Z,15.70
2019-06-08T17:45:38.408Z,15.40
2019-06-08T17:48:07.066Z,15.10
2019-06-08T17:50:36.546Z,15.10
2019-06-08T17:53:05.267Z,15.10
2019-06-08T17:55:35.114Z,15.20
2019-06-08T17:58:03.774Z,15.20
2019-06-08T18:00:33.198Z,15.40
2019-06-08T18:03:01.734Z,15.50
2019-06-08T18:05:30.248Z,15.60
2019-06-08T18:07:58.719Z,15.60
2019-06-08T18:10:27.882Z,15.60
2019-06-08T18:12:58.770Z,15.60
2019-06-08T18:15:28.377Z,15.60
2019-06-08T18:17:57.732Z,15.50
2019-06-08T18:20:28.315Z,15.60
2019-06-08T18:22:57.873Z,15.60
2019-06-08T18:25:27.865Z,15.70
2019-06-08T18:28:06.532Z,15.70
2019-06-08T18:30:27.664Z,15.70
2019-06-08T18:32:58.117Z,15.70
2019-06-08T18:35:27.808Z,15.80
2019-06-08T18:37:57.856Z,15.70
2019-06-08T18:40:27.309Z,15.70
2019-06-08T18:42:57.626Z,15.70
2019-06-08T18:45:27.643Z,15.70
2019-06-08T18:47:57.754Z,15.70
2019-06-08T18:50:28.512Z,15.80
2019-06-08T18:52:57.971Z,15.80
2019-06-08T18:55:27.703Z,15.80
2019-06-08T18:57:57.185Z,15.70
2019-06-08T19:00:39.981Z,15.70
2019-06-08T19:03:08.689Z,15.60
2019-06-08T19:05:40.309Z,15.60
2019-06-08T19:08:09.926Z,15.50
2019-06-08T19:10:39.466Z,15.50
2019-06-08T19:13:08.782Z,15.50
2019-06-08T19:15:42.258Z,15.50
2019-06-08T19:18:08.455Z,15.60
2019-06-08T19:20:40.698Z,15.60
2019-06-08T19:23:09.063Z,15.60
2019-06-08T19:25:42.127Z,15.60
2019-06-08T19:28:07.888Z,15.60
2019-06-08T19:30:39.450Z,15.50
2019-06-08T19:33:07.323Z,15.60
2019-06-08T19:35:35.959Z,15.60
2019-06-08T19:38:04.568Z,15.50
2019-06-08T19:40:33.031Z,15.60
2019-06-08T19:43:01.694Z,15.60
2019-06-08T19:45:30.322Z,15.50
2019-06-08T19:47:58.782Z,15.50
2019-06-08T19:50:28.685Z,15.40
2019-06-08T19:52:58.152Z,15.40
2019-06-08T19:55:26.798Z,15.30
2019-06-08T19:57:57.082Z,15.20
2019-06-08T20:00:27.715Z,15.20
2019-06-08T20:02:58.050Z,15.10
2019-06-08T20:05:27.895Z,15.00
2019-06-08T20:07:57.503Z,15.00
2019-06-08T20:10:28.008Z,15.00
2019-06-08T20:12:57.513Z,15.00
2019-06-08T20:15:26.488Z,14.90
2019-06-08T20:17:57.283Z,14.90
2019-06-08T20:20:27.669Z,14.80
2019-06-08T20:22:55.445Z,14.80
2019-06-08T20:25:23.911Z,14.80
2019-06-08T20:27:53.607Z,14.80
2019-06-08T20:30:22.355Z,14.80
2019-06-08T20:32:52.563Z,14.80
2019-06-08T20:35:21.037Z,14.80
2019-06-08T20:37:49.996Z,14.80
2019-06-08T20:40:18.789Z,14.70
2019-06-08T20:42:50.920Z,14.70
2019-06-08T20:45:17.564Z,14.70
2019-06-08T20:47:49.438Z,14.70
2019-06-08T20:50:17.606Z,14.70
2019-06-08T20:52:47.283Z,14.60
2019-06-08T20:55:17.468Z,14.60
2019-06-08T20:57:49.032Z,14.50
2019-06-08T21:00:16.642Z,14.50
2019-06-08T21:02:46.408Z,14.50
2019-06-08T21:05:15.337Z,14.50
2019-06-08T21:07:44.965Z,14.50
2019-06-08T21:10:14.092Z,14.40
2019-06-08T21:12:42.531Z,14.50
2019-06-08T21:15:11.064Z,14.40
2019-06-08T21:17:39.495Z,14.40
2019-06-08T21:20:08.645Z,14.30
2019-06-08T21:22:37.239Z,14.30
2019-06-08T21:25:08.875Z,14.20
2019-06-08T21:27:38.499Z,14.20
2019-06-08T21:30:20.592Z,14.20
2019-06-08T21:32:39.131Z,14.20
2019-06-08T21:35:07.913Z,14.10
2019-06-08T21:37:37.739Z,14.00
2019-06-08T21:40:08.472Z,14.00
2019-06-08T21:42:37.223Z,14.00
2019-06-08T21:45:09.604Z,14.00
2019-06-08T21:47:37.924Z,14.10
2019-06-08T21:50:08.082Z,14.00
2019-06-08T21:52:36.918Z,14.00
2019-06-08T21:55:07.311Z,14.00
2019-06-08T21:57:37.120Z,14.00
2019-06-08T22:00:27.130Z,14.00
2019-06-08T22:02:39.364Z,14.00
2019-06-08T22:05:08.361Z,13.90
2019-06-08T22:07:37.746Z,13.90
2019-06-08T22:10:07.551Z,13.90
2019-06-08T22:12:39.986Z,13.80
2019-06-08T22:15:07.765Z,13.90
2019-06-08T22:17:38.356Z,13.80
2019-06-08T22:20:08.641Z,13.80
2019-06-08T22:22:37.860Z,13.70
2019-06-08T22:25:08.245Z,13.70
2019-06-08T22:31:08.034Z,13.70
2019-06-08T22:33:37.890Z,13.70
2019-06-08T22:36:08.905Z,13.70
2019-06-08T22:38:37.320Z,13.80
2019-06-08T22:41:08.024Z,13.80
2019-06-08T22:43:37.412Z,13.90
2019-06-08T22:46:08.320Z,13.80
2019-06-08T22:48:38.443Z,13.90
2019-06-08T22:51:08.045Z,13.90
2019-06-08T22:53:38.430Z,13.90
2019-06-08T22:56:07.944Z,13.90
2019-06-08T22:58:37.274Z,13.80
2019-06-08T23:01:08.645Z,13.80
2019-06-08T23:03:36.099Z,13.80
2019-06-08T23:06:08.177Z,13.80
2019-06-08T23:08:37.331Z,13.70
2019-06-08T23:11:08.303Z,13.70
2019-06-08T23:13:37.603Z,13.70
2019-06-08T23:16:08.534Z,13.60
2019-06-08T23:18:37.320Z,13.60
2019-06-08T23:21:08.635Z,13.50
2019-06-08T23:23:38.061Z,13.50
2019-06-08T23:26:10.166Z,13.50
2019-06-08T23:28:37.720Z,13.50
2019-06-08T23:31:19.677Z,13.50
2019-06-08T23:33:38.730Z,13.50
2019-06-08T23:36:44.157Z,13.50
2019-06-08T23:38:37.446Z,13.40
2019-06-08T23:41:08.713Z,13.40
2019-06-08T23:44:18.802Z,13.40
2019-06-08T23:46:47.605Z,13.30
2019-06-08T23:49:34.307Z,13.30
2019-06-08T23:52:10.465Z,13.20
2019-06-08T23:54:37.548Z,13.10
2019-06-08T23:57:07.616Z,13.10
